Time;durP1;ratioP1;P1;durP2;ratioP2;P2;SDS_P1;SDS_P2;PMS_P1;PMS_P2;Temp;Humidity;BMP_temperature;BMP_pressure;BME280_temperature;BME280_humidity;BME280_pressure;Samples;Min_cycle;Max_cycle;Signal;HPM_P1;HPM_P2
2023/07/29 00:01:51;;;;;;;12.45;10.00;;;17.40;99.90;;;;;;5081450;28;20036;-81
2023/07/29 00:04:17;;;;;;;11.73;9.70;;;17.30;99.90;;;;;;5079228;28;20498;-81
2023/07/29 00:06:42;;;;;;;11.63;10.07;;;17.40;99.90;;;;;;5081215;28;20039;-81
2023/07/29 00:09:08;;;;;;;13.50;10.73;;;17.30;99.90;;;;;;5086690;28;20127;-81
2023/07/29 00:11:34;;;;;;;14.13;10.65;;;17.30;99.90;;;;;;5073778;28;20044;-81
2023/07/29 00:14:01;;;;;;;11.30;9.35;;;17.50;99.90;;;;;;5066451;28;20059;-81
2023/07/29 00:16:27;;;;;;;11.02;9.77;;;17.30;99.90;;;;;;5068924;28;20055;-81
2023/07/29 00:18:52;;;;;;;11.27;9.68;;;17.30;99.90;;;;;;5074948;28;20048;-80
2023/07/29 00:21:18;;;;;;;12.10;10.73;;;17.60;99.90;;;;;;5081202;28;20112;-81
2023/07/29 00:23:44;;;;;;;10.05;8.98;;;17.20;99.90;;;;;;5086696;28;20063;-81
2023/07/29 00:26:10;;;;;;;12.52;9.50;;;17.10;99.90;;;;;;5073533;28;20530;-82
2023/07/29 00:28:35;;;;;;;11.85;10.43;;;17.10;99.90;;;;;;5083188;28;20123;-81
2023/07/29 00:31:02;;;;;;;11.70;10.45;;;17.10;99.90;;;;;;5069218;28;20042;-81
2023/07/29 00:33:27;;;;;;;11.95;10.48;;;17.10;99.90;;;;;;5076685;28;20044;-82
2023/07/29 00:35:53;;;;;;;11.95;10.05;;;17.10;99.90;;;;;;5063189;28;20052;-82
2023/07/29 00:38:19;;;;;;;13.00;10.75;;;17.00;99.90;;;;;;5078304;28;20043;-81
2023/07/29 00:40:44;;;;;;;12.43;11.02;;;17.10;99.90;;;;;;5088632;28;20524;-82
2023/07/29 00:43:10;;;;;;;12.95;10.93;;;17.00;99.90;;;;;;5057252;28;20492;-81
2023/07/29 00:45:36;;;;;;;14.75;10.48;;;17.00;99.90;;;;;;5072853;28;20131;-81
2023/07/29 00:48:03;;;;;;;13.23;10.50;;;17.00;99.90;;;;;;5093709;28;20055;-82
2023/07/29 00:50:30;;;;;;;12.57;10.50;;;17.00;99.90;;;;;;5091834;28;20052;-81
2023/07/29 00:52:57;;;;;;;13.23;10.35;;;17.00;99.90;;;;;;5087549;28;20415;-81
2023/07/29 00:55:23;;;;;;;10.82;9.70;;;16.90;99.90;;;;;;5089826;28;20048;-82
2023/07/29 00:57:54;;;;;;;11.27;10.07;;;17.40;99.90;;;;;;5087063;28;20521;-82
2023/07/29 01:00:20;;;;;;;10.38;9.30;;;17.00;99.90;;;;;;5087850;28;20157;-81
2023/07/29 01:02:45;;;;;;;11.68;9.85;;;17.00;99.90;;;;;;5072800;28;20048;-81
2023/07/29 01:05:14;;;;;;;10.57;9.43;;;17.00;99.90;;;;;;5077078;28;20048;-81
2023/07/29 01:07:54;;;;;;;12.75;9.65;;;16.90;99.90;;;;;;5072659;28;20040;-81
2023/07/29 01:10:23;;;;;;;12.07;9.30;;;16.90;99.90;;;;;;5072195;28;20406;-81
2023/07/29 01:12:54;;;;;;;11.13;9.35;;;16.90;99.90;;;;;;5073126;28;20767;-81
2023/07/29 01:15:53;;;;;;;13.15;9.65;;;17.30;99.90;;;;;;5079062;28;20414;-82
2023/07/29 01:18:24;;;;;;;10.40;9.30;;;16.80;99.90;;;;;;5078204;28;20045;-81
2023/07/29 01:20:58;;;;;;;13.10;10.38;;;16.80;99.90;;;;;;5084850;28;20090;-81
2023/07/29 01:23:34;;;;;;;10.98;9.27;;;16.80;99.90;;;;;;5080168;28;20044;-81
2023/07/29 01:26:02;;;;;;;10.00;9.00;;;16.70;99.90;;;;;;5086529;28;20498;-81
2023/07/29 01:28:28;;;;;;;13.07;9.63;;;16.70;99.90;;;;;;5088794;28;20105;-81
2023/07/29 01:31:05;;;;;;;10.70;9.05;;;16.70;99.90;;;;;;5061717;28;20509;-81
2023/07/29 01:33:39;;;;;;;13.35;9.55;;;16.70;99.90;;;;;;5084301;28;20070;-81
2023/07/29 01:36:13;;;;;;;11.90;10.05;;;16.60;99.90;;;;;;5056105;28;20083;-81
2023/07/29 01:38:41;;;;;;;13.15;9.45;;;16.60;99.90;;;;;;5088296;28;20828;-82
2023/07/29 01:41:08;;;;;;;11.65;10.38;;;16.60;99.90;;;;;;5067402;28;20127;-82
2023/07/29 01:43:39;;;;;;;11.75;9.63;;;16.60;99.90;;;;;;5083953;28;20048;-81
2023/07/29 01:46:05;;;;;;;10.25;9.15;;;16.80;99.90;;;;;;5092549;28;20056;-81
2023/07/29 01:48:31;;;;;;;11.02;9.52;;;16.50;99.90;;;;;;5073562;28;20419;-81
2023/07/29 01:50:57;;;;;;;11.30;9.38;;;16.50;99.90;;;;;;5089376;28;20086;-81
2023/07/29 01:53:23;;;;;;;10.98;9.10;;;16.50;99.90;;;;;;5072657;28;20060;-82
2023/07/29 01:55:49;;;;;;;11.73;9.02;;;16.50;99.90;;;;;;5069759;28;20048;-81
2023/07/29 01:58:15;;;;;;;10.38;9.30;;;16.50;99.90;;;;;;5084907;28;20126;-82
2023/07/29 02:00:40;;;;;;;9.55;8.50;;;16.50;99.90;;;;;;5088160;28;20047;-81
2023/07/29 02:03:06;;;;;;;9.23;8.32;;;16.50;99.90;;;;;;5069788;28;20359;-82
2023/07/29 02:05:31;;;;;;;10.70;8.93;;;16.40;99.90;;;;;;5087843;28;20052;-82
2023/07/29 02:07:57;;;;;;;15.35;9.65;;;16.50;99.90;;;;;;5088100;28;20051;-82
2023/07/29 02:10:23;;;;;;;11.88;8.70;;;16.50;99.90;;;;;;5087439;28;20044;-82
2023/07/29 02:12:48;;;;;;;10.70;8.27;;;16.50;99.90;;;;;;5081075;28;20040;-82
2023/07/29 02:15:14;;;;;;;9.73;8.02;;;16.50;99.90;;;;;;5090407;28;20494;-82
2023/07/29 02:17:42;;;;;;;10.32;7.80;;;16.50;99.90;;;;;;5073472;28;20040;-82
2023/07/29 02:20:08;;;;;;;9.10;7.72;;;16.50;99.90;;;;;;5084335;28;20157;-82
2023/07/29 02:22:34;;;;;;;9.82;7.78;;;16.50;99.90;;;;;;5070058;28;20482;-82
2023/07/29 02:25:00;;;;;;;9.18;7.28;;;16.50;99.90;;;;;;5051411;28;20093;-82
2023/07/29 02:27:27;;;;;;;8.30;7.47;;;16.50;99.90;;;;;;5068268;28;20112;-82
2023/07/29 02:29:53;;;;;;;7.90;7.10;;;16.50;99.90;;;;;;5069661;28;20075;-82
2023/07/29 02:32:18;;;;;;;9.77;7.63;;;16.50;99.90;;;;;;5064726;28;20464;-81
2023/07/29 02:34:44;;;;;;;8.02;6.57;;;16.50;99.90;;;;;;5068500;28;20132;-82
2023/07/29 02:37:10;;;;;;;8.32;6.95;;;16.50;99.90;;;;;;5082312;28;20040;-82
2023/07/29 02:39:36;;;;;;;8.48;7.13;;;16.90;99.90;;;;;;5070253;28;20106;-82
2023/07/29 02:42:02;;;;;;;9.40;6.93;;;16.40;99.90;;;;;;5087074;28;20670;-82
2023/07/29 02:44:27;;;;;;;8.38;6.80;;;16.60;99.90;;;;;;5088063;28;20048;-82
2023/07/29 02:46:55;;;;;;;8.05;6.60;;;16.60;99.90;;;;;;5069315;28;20055;-82
2023/07/29 02:49:21;;;;;;;7.55;6.68;;;16.60;99.90;;;;;;5088089;28;20086;-82
2023/07/29 02:51:47;;;;;;;7.75;6.50;;;16.60;99.90;;;;;;5087867;28;20106;-82
2023/07/29 02:54:12;;;;;;;8.18;6.45;;;16.60;99.90;;;;;;5066273;28;20128;-82
2023/07/29 02:56:38;;;;;;;6.93;6.15;;;16.60;99.90;;;;;;5086748;28;20040;-82
2023/07/29 02:59:04;;;;;;;9.02;6.43;;;16.70;99.90;;;;;;5067692;28;20684;-82
2023/07/29 03:01:30;;;;;;;8.02;6.07;;;16.70;99.90;;;;;;5067732;28;20514;-82
2023/07/29 03:03:56;;;;;;;6.85;6.15;;;16.70;99.90;;;;;;5097673;28;20044;-82
2023/07/29 03:06:22;;;;;;;6.95;5.13;;;16.70;99.90;;;;;;5072171;28;20032;-82
2023/07/29 03:08:47;;;;;;;6.10;5.40;;;17.20;99.90;;;;;;5077814;28;20075;-82
2023/07/29 03:11:15;;;;;;;6.80;6.10;;;16.70;99.90;;;;;;5069106;28;20045;-82
2023/07/29 03:13:41;;;;;;;7.93;5.90;;;16.70;99.90;;;;;;5051101;28;20048;-82
2023/07/29 03:16:08;;;;;;;6.60;5.90;;;16.70;99.90;;;;;;5069027;28;20041;-82
2023/07/29 03:18:34;;;;;;;8.15;6.15;;;16.60;99.90;;;;;;5078227;28;20044;-82
2023/07/29 03:21:00;;;;;;;6.70;5.32;;;16.60;99.90;;;;;;5059600;28;20040;-82
2023/07/29 03:23:27;;;;;;;5.70;5.18;;;16.60;99.90;;;;;;5066384;28;20035;-83
2023/07/29 03:26:01;;;;;;;7.50;6.00;;;16.90;99.90;;;;;;5058213;28;20856;-81
2023/07/29 03:28:33;;;;;;;6.57;5.80;;;16.60;99.90;;;;;;5082868;28;20044;-81
2023/07/29 03:30:59;;;;;;;7.82;6.03;;;16.60;99.90;;;;;;5082184;28;20045;-81
2023/07/29 03:33:25;;;;;;;6.82;5.13;;;16.50;99.90;;;;;;5067497;28;20072;-82
2023/07/29 03:35:51;;;;;;;8.50;6.13;;;17.00;99.90;;;;;;5076027;28;20040;-82
2023/07/29 03:38:17;;;;;;;8.55;5.78;;;16.50;99.90;;;;;;5084436;28;20110;-81
2023/07/29 03:40:43;;;;;;;7.30;6.10;;;16.40;99.90;;;;;;5079985;28;20510;-82
2023/07/29 03:43:08;;;;;;;6.03;5.47;;;16.40;99.90;;;;;;5069813;28;20443;-82
2023/07/29 03:45:35;;;;;;;7.47;6.10;;;16.40;99.90;;;;;;5071306;28;20052;-81
2023/07/29 03:48:01;;;;;;;7.68;5.43;;;16.40;99.90;;;;;;5068588;28;20487;-82
2023/07/29 03:50:29;;;;;;;6.00;5.45;;;16.30;99.90;;;;;;5085994;28;20055;-82
2023/07/29 03:52:54;;;;;;;8.13;5.13;;;16.30;99.90;;;;;;5082486;28;20101;-81
2023/07/29 03:55:20;;;;;;;6.05;5.32;;;16.30;99.90;;;;;;5053107;28;20507;-81
2023/07/29 03:57:46;;;;;;;5.53;5.03;;;16.20;99.90;;;;;;5066723;28;20044;-82
2023/07/29 04:00:12;;;;;;;5.75;4.60;;;16.20;99.90;;;;;;5066621;28;20097;-84
2023/07/29 04:02:38;;;;;;;5.22;4.55;;;16.20;99.90;;;;;;5076346;28;20046;-82
2023/07/29 04:05:06;;;;;;;7.20;4.90;;;16.40;99.90;;;;;;5079756;28;20136;-83
2023/07/29 04:07:32;;;;;;;7.25;5.20;;;16.20;99.90;;;;;;5049626;28;20538;-82
2023/07/29 04:09:57;;;;;;;5.13;4.38;;;16.20;99.90;;;;;;5065705;28;20124;-82
2023/07/29 04:12:23;;;;;;;4.68;3.85;;;16.30;99.90;;;;;;5067396;28;20072;-82
2023/07/29 04:14:49;;;;;;;5.55;4.43;;;16.20;99.90;;;;;;5069913;28;20604;-82
2023/07/29 04:17:15;;;;;;;6.00;4.32;;;16.20;99.90;;;;;;5061352;28;20040;-82
2023/07/29 04:19:40;;;;;;;3.95;3.60;;;16.20;99.90;;;;;;5078095;28;20043;-82
2023/07/29 04:22:06;;;;;;;4.50;4.10;;;16.50;99.90;;;;;;5051643;28;20044;-82
2023/07/29 04:24:32;;;;;;;4.38;3.83;;;16.30;99.90;;;;;;5083099;28;20035;-82
2023/07/29 04:26:57;;;;;;;4.30;3.92;;;16.30;99.90;;;;;;5082855;28;20078;-82
2023/07/29 04:29:23;;;;;;;4.80;3.58;;;16.30;99.90;;;;;;5060660;28;20068;-82
2023/07/29 04:31:50;;;;;;;5.47;4.05;;;16.50;99.90;;;;;;5080381;28;20054;-82
2023/07/29 04:34:15;;;;;;;4.85;3.40;;;16.40;99.90;;;;;;5073958;28;20486;-81
2023/07/29 04:36:41;;;;;;;3.60;3.20;;;16.40;99.90;;;;;;5082992;28;20127;-82
2023/07/29 04:39:07;;;;;;;4.50;3.25;;;16.40;99.90;;;;;;5086308;28;20039;-82
2023/07/29 04:41:33;;;;;;;3.83;3.38;;;16.50;99.90;;;;;;5084114;28;20138;-82
2023/07/29 04:43:59;;;;;;;4.72;3.30;;;16.60;99.90;;;;;;5067659;28;20124;-82
2023/07/29 04:46:24;;;;;;;3.53;3.22;;;16.60;99.90;;;;;;5066204;28;20055;-82
2023/07/29 04:48:50;;;;;;;3.72;3.15;;;16.50;99.90;;;;;;5066056;28;20114;-82
2023/07/29 04:51:15;;;;;;;3.50;2.90;;;16.60;99.90;;;;;;5053503;28;20044;-82
2023/07/29 04:53:41;;;;;;;5.30;3.65;;;16.90;99.90;;;;;;5067157;28;20048;-82
2023/07/29 04:56:06;;;;;;;3.75;3.15;;;16.90;99.90;;;;;;5064064;28;20040;-82
2023/07/29 04:58:35;;;;;;;3.72;3.33;;;16.60;99.90;;;;;;5081235;28;20041;-82
2023/07/29 05:01:01;;;;;;;4.38;3.35;;;16.60;99.90;;;;;;5083139;28;20120;-82
2023/07/29 05:03:26;;;;;;;3.90;3.50;;;16.60;99.90;;;;;;5066671;28;20120;-82
2023/07/29 05:05:54;;;;;;;5.32;3.05;;;17.00;99.90;;;;;;5050232;28;20123;-82
2023/07/29 05:08:20;;;;;;;4.13;3.50;;;16.70;99.90;;;;;;5056776;28;20040;-82
2023/07/29 05:10:49;;;;;;;5.53;3.58;;;16.60;99.90;;;;;;5086401;28;20454;-82
2023/07/29 05:13:15;;;;;;;4.15;3.20;;;16.60;99.90;;;;;;5084775;28;20048;-82
2023/07/29 05:15:40;;;;;;;3.92;3.20;;;16.80;99.90;;;;;;5083407;28;20040;-83
2023/07/29 05:18:06;;;;;;;5.47;3.28;;;16.60;99.90;;;;;;5075604;28;20048;-82
2023/07/29 05:20:32;;;;;;;3.65;2.75;;;16.90;99.90;;;;;;5070549;28;20040;-84
2023/07/29 05:22:57;;;;;;;3.40;3.10;;;16.70;99.90;;;;;;5056258;28;20747;-82
2023/07/29 05:25:23;;;;;;;4.68;3.13;;;16.80;99.90;;;;;;5087746;28;20069;-83
2023/07/29 05:27:48;;;;;;;3.78;2.97;;;16.80;99.90;;;;;;5074628;28;20127;-83
2023/07/29 05:30:14;;;;;;;4.18;3.22;;;16.80;99.90;;;;;;5088317;28;20044;-82
2023/07/29 05:32:39;;;;;;;3.55;2.92;;;16.90;99.90;;;;;;5059250;28;20044;-83
2023/07/29 05:35:09;;;;;;;3.95;3.35;;;16.90;99.90;;;;;;5072497;28;20043;-83
2023/07/29 05:37:37;;;;;;;4.65;3.28;;;16.90;99.90;;;;;;5052873;28;20818;-82
2023/07/29 05:40:03;;;;;;;4.20;3.30;;;17.00;99.90;;;;;;5068946;28;20067;-82
2023/07/29 05:42:29;;;;;;;3.72;3.10;;;17.00;99.90;;;;;;5089557;28;20151;-84
2023/07/29 05:44:56;;;;;;;4.85;3.03;;;17.00;99.90;;;;;;5091598;28;20472;-82
2023/07/29 05:47:21;;;;;;;5.07;3.35;;;17.00;99.90;;;;;;5090927;28;20132;-82
2023/07/29 05:49:47;;;;;;;4.65;3.40;;;17.10;99.90;;;;;;5088940;28;20158;-83
2023/07/29 05:52:13;;;;;;;4.60;3.50;;;17.10;99.90;;;;;;5089740;28;20092;-82
2023/07/29 05:54:38;;;;;;;5.10;3.40;;;17.10;99.90;;;;;;5072182;28;20040;-82
2023/07/29 05:57:04;;;;;;;5.03;3.60;;;17.10;99.90;;;;;;5068868;28;20098;-83
2023/07/29 05:59:30;;;;;;;5.25;3.95;;;17.20;99.90;;;;;;5075422;28;20079;-82
2023/07/29 06:01:56;;;;;;;6.78;3.90;;;17.20;99.90;;;;;;5062025;28;20131;-83
2023/07/29 06:04:21;;;;;;;8.45;4.22;;;17.20;99.90;;;;;;5067854;28;20051;-83
2023/07/29 06:06:47;;;;;;;4.93;3.85;;;17.20;99.90;;;;;;5089469;28;20036;-83
2023/07/29 06:09:12;;;;;;;5.65;4.40;;;17.30;99.90;;;;;;5087021;28;20147;-83
2023/07/29 06:11:38;;;;;;;7.28;4.20;;;17.40;99.90;;;;;;5088911;28;20040;-82
2023/07/29 06:14:04;;;;;;;7.38;4.43;;;17.40;99.90;;;;;;5075119;28;20098;-82
2023/07/29 06:16:29;;;;;;;7.35;4.20;;;17.50;99.90;;;;;;5068625;28;20052;-82
2023/07/29 06:18:55;;;;;;;6.07;4.43;;;17.90;99.90;;;;;;5069679;28;20040;-82
2023/07/29 06:21:24;;;;;;;9.02;5.20;;;17.60;99.90;;;;;;5070124;28;20044;-83
2023/07/29 06:23:49;;;;;;;6.90;4.50;;;17.70;99.90;;;;;;5067714;28;20395;-83
2023/07/29 06:26:15;;;;;;;9.95;4.50;;;17.90;99.90;;;;;;5068615;28;20036;-83
2023/07/29 06:28:40;;;;;;;7.18;4.43;;;18.10;99.90;;;;;;5056570;28;20047;-83
2023/07/29 06:31:06;;;;;;;6.57;4.28;;;18.60;99.90;;;;;;5071652;28;20841;-82
2023/07/29 06:33:32;;;;;;;6.35;4.45;;;19.30;99.90;;;;;;5084563;28;20055;-83
2023/07/29 06:35:57;;;;;;;6.30;4.40;;;19.00;99.90;;;;;;5089388;28;20841;-83
2023/07/29 06:38:23;;;;;;;5.55;4.47;;;19.00;99.90;;;;;;5088102;28;20113;-83
2023/07/29 06:40:49;;;;;;;7.35;4.60;;;19.00;99.90;;;;;;5087958;28;20143;-83
2023/07/29 06:43:14;;;;;;;8.68;5.45;;;18.90;99.90;;;;;;5082861;28;20036;-84
2023/07/29 06:45:40;;;;;;;7.25;4.57;;;18.90;99.90;;;;;;5068261;28;20135;-83
2023/07/29 06:48:05;;;;;;;9.20;4.60;;;18.90;99.90;;;;;;5068194;28;20049;-84
2023/07/29 06:50:31;;;;;;;5.63;4.15;;;18.80;99.90;;;;;;5067830;28;20049;-83
2023/07/29 06:52:57;;;;;;;7.68;4.43;;;19.00;99.90;;;;;;5069293;28;20071;-83
2023/07/29 06:55:22;;;;;;;9.65;4.68;;;19.00;99.90;;;;;;5084907;28;20044;-83
2023/07/29 06:57:48;;;;;;;6.32;4.22;;;19.20;99.90;;;;;;5071478;28;20173;-83
2023/07/29 07:00:14;;;;;;;10.93;5.65;;;19.20;99.90;;;;;;5089435;28;20036;-82
2023/07/29 07:02:39;;;;;;;7.72;5.10;;;19.30;99.90;;;;;;5088259;28;20043;-82
2023/07/29 07:05:05;;;;;;;7.15;4.90;;;19.40;99.90;;;;;;5088235;28;20379;-82
2023/07/29 07:07:31;;;;;;;6.63;4.68;;;19.40;99.90;;;;;;5070765;28;20134;-83
2023/07/29 07:09:56;;;;;;;8.02;4.63;;;19.40;99.90;;;;;;5086160;28;20051;-82
2023/07/29 07:12:22;;;;;;;7.97;4.60;;;19.30;99.90;;;;;;5089417;28;20098;-83
2023/07/29 07:14:48;;;;;;;8.35;5.20;;;19.60;99.90;;;;;;5088797;28;20688;-84
2023/07/29 07:17:13;;;;;;;7.72;5.05;;;19.60;99.90;;;;;;5088711;28;20040;-83
2023/07/29 07:19:39;;;;;;;10.57;5.57;;;19.30;99.90;;;;;;5068591;28;20032;-83
2023/07/29 07:22:05;;;;;;;5.88;5.00;;;19.30;99.90;;;;;;5071158;28;20055;-84
2023/07/29 07:24:31;;;;;;;8.75;5.70;;;19.40;99.90;;;;;;5070359;28;20047;-83
2023/07/29 07:26:56;;;;;;;7.38;5.13;;;19.40;99.90;;;;;;5086955;28;20117;-83
2023/07/29 07:29:22;;;;;;;7.53;4.78;;;19.50;99.90;;;;;;5087510;28;20043;-86
2023/07/29 07:31:52;;;;;;;6.85;4.97;;;19.60;99.90;;;;;;5088659;28;20090;-88
2023/07/29 07:34:19;;;;;;;7.18;4.93;;;19.90;99.90;;;;;;5070116;28;20115;-82
2023/07/29 07:36:45;;;;;;;7.78;4.90;;;20.00;99.90;;;;;;5070490;28;20799;-83
2023/07/29 07:39:10;;;;;;;7.82;4.82;;;20.10;99.90;;;;;;5086208;28;20048;-83
2023/07/29 07:41:36;;;;;;;7.15;4.72;;;20.10;99.90;;;;;;5087051;28;20077;-84
2023/07/29 07:44:04;;;;;;;7.72;4.93;;;20.20;99.90;;;;;;5085611;28;20063;-84
2023/07/29 07:46:30;;;;;;;9.50;4.85;;;20.50;99.90;;;;;;5066762;28;20049;-85
2023/07/29 07:48:55;;;;;;;11.82;4.68;;;20.60;99.90;;;;;;5067335;28;20044;-83
2023/07/29 07:51:21;;;;;;;8.40;4.85;;;20.70;99.90;;;;;;5066713;28;20502;-83
2023/07/29 07:53:48;;;;;;;5.53;4.50;;;20.60;99.90;;;;;;5066587;28;20123;-83
2023/07/29 07:56:14;;;;;;;7.60;4.63;;;20.70;99.90;;;;;;5082391;28;20558;-83
2023/07/29 07:58:40;;;;;;;5.65;4.35;;;20.80;99.90;;;;;;5070000;28;20043;-85
2023/07/29 08:01:10;;;;;;;8.73;4.22;;;20.80;99.90;;;;;;5070535;28;20096;-84
2023/07/29 08:03:36;;;;;;;4.97;3.60;;;20.60;99.90;;;;;;5084639;28;20139;-83
2023/07/29 08:06:02;;;;;;;5.95;4.18;;;20.70;99.90;;;;;;5088491;28;20044;-85
2023/07/29 08:08:28;;;;;;;13.32;4.15;;;20.70;99.90;;;;;;5086893;28;20051;-84
2023/07/29 08:10:54;;;;;;;4.95;3.60;;;20.80;99.90;;;;;;5073232;28;20075;-84
2023/07/29 08:13:24;;;;;;;5.43;3.47;;;21.00;99.90;;;;;;5067806;28;20083;-87
2023/07/29 08:15:52;;;;;;;4.30;3.78;;;21.20;99.90;;;;;;5086756;28;20052;-85
2023/07/29 08:18:18;;;;;;;7.32;3.88;;;20.90;99.90;;;;;;5084851;28;20039;-85
2023/07/29 08:20:58;;;;;;;5.18;3.10;;;21.10;99.90;;;;;;5067541;28;20123;-84
2023/07/29 08:23:25;;;;;;;4.70;3.10;;;21.30;99.90;;;;;;5059917;28;20047;-86
2023/07/29 08:25:56;;;;;;;4.72;3.80;;;21.30;99.90;;;;;;5083584;28;20091;-86
2023/07/29 08:28:25;;;;;;;5.13;3.67;;;21.10;99.90;;;;;;5052924;28;20055;-84
2023/07/29 08:30:50;;;;;;;4.35;3.38;;;20.90;99.90;;;;;;5058003;28;20045;-84
2023/07/29 08:33:16;;;;;;;5.60;3.80;;;21.30;99.90;;;;;;5060215;28;20047;-83
2023/07/29 08:35:42;;;;;;;4.82;3.70;;;20.80;99.90;;;;;;5086744;28;20059;-84
2023/07/29 08:38:07;;;;;;;5.78;3.90;;;21.10;99.90;;;;;;5083997;28;20037;-84
2023/07/29 08:40:37;;;;;;;5.65;3.58;;;21.40;99.90;;;;;;5079961;28;20371;-84
2023/07/29 08:43:05;;;;;;;5.63;3.45;;;21.60;99.90;;;;;;5074119;28;20052;-84
2023/07/29 08:45:41;;;;;;;5.05;3.50;;;22.00;99.90;;;;;;5081183;28;20110;-86
2023/07/29 08:48:11;;;;;;;6.57;3.33;;;21.90;99.90;;;;;;5058139;28;20045;-83
2023/07/29 08:50:37;;;;;;;8.35;3.05;;;22.10;99.90;;;;;;5073826;28;20036;-87
2023/07/29 08:53:08;;;;;;;3.67;3.03;;;22.10;99.90;;;;;;5071396;28;20044;-87
2023/07/29 08:55:34;;;;;;;6.57;2.95;;;22.00;99.90;;;;;;5071219;28;20048;-89
2023/07/29 08:58:00;;;;;;;3.55;2.40;;;22.40;99.90;;;;;;5071628;28;20105;-87
2023/07/29 09:00:27;;;;;;;5.15;2.63;;;22.10;99.90;;;;;;5071612;28;20048;-87
2023/07/29 09:02:53;;;;;;;5.35;2.60;;;21.90;99.90;;;;;;5072955;28;20429;-86
2023/07/29 09:05:21;;;;;;;3.53;2.63;;;21.90;99.90;;;;;;5077706;28;20406;-86
2023/07/29 09:07:47;;;;;;;4.43;2.75;;;21.90;99.90;;;;;;5073192;28;20084;-88
2023/07/29 09:10:14;;;;;;;5.82;3.20;;;21.90;99.90;;;;;;5059170;28;20101;-88
2023/07/29 09:12:40;;;;;;;4.53;2.10;;;22.40;99.90;;;;;;5074365;28;20055;-86
2023/07/29 09:15:06;;;;;;;4.82;2.67;;;22.10;99.90;;;;;;5061068;28;20048;-89
2023/07/29 09:17:33;;;;;;;8.30;2.60;;;22.30;99.90;;;;;;5072779;28;20638;-87
2023/07/29 09:19:59;;;;;;;2.90;2.03;;;22.40;99.90;;;;;;5072192;28;20708;-89
2023/07/29 09:22:27;;;;;;;2.88;1.92;;;22.60;99.90;;;;;;5056274;28;20070;-87
2023/07/29 09:24:53;;;;;;;7.18;2.47;;;22.40;99.90;;;;;;5070795;28;20044;-84
2023/07/29 09:27:26;;;;;;;3.30;1.92;;;22.40;99.90;;;;;;5085516;28;20330;-85
2023/07/29 09:29:53;;;;;;;9.30;2.92;;;22.50;99.90;;;;;;5089611;28;20054;-84
2023/07/29 09:32:23;;;;;;;3.78;1.65;;;22.30;99.90;;;;;;5089660;28;20040;-84
2023/07/29 09:34:49;;;;;;;4.10;1.70;;;22.80;99.90;;;;;;5084788;28;20048;-84
2023/07/29 09:37:33;;;;;;;3.35;1.60;;;22.50;99.90;;;;;;5071417;28;20458;-86
2023/07/29 09:39:58;;;;;;;2.40;1.58;;;22.40;99.90;;;;;;5055084;28;20045;-85
2023/07/29 09:42:24;;;;;;;3.35;1.77;;;22.80;99.90;;;;;;5071302;28;20055;-83
2023/07/29 09:44:50;;;;;;;3.47;1.65;;;22.60;99.90;;;;;;5055591;28;20080;-84
2023/07/29 09:47:24;;;;;;;4.93;2.03;;;22.60;99.90;;;;;;5069466;28;20062;-84
2023/07/29 09:49:53;;;;;;;5.25;1.95;;;22.40;99.90;;;;;;5052446;28;20051;-83
2023/07/29 09:52:24;;;;;;;3.30;1.70;;;22.60;99.90;;;;;;5069210;28;20401;-83
2023/07/29 09:54:50;;;;;;;3.30;1.80;;;22.60;99.90;;;;;;5051898;28;20164;-84
2023/07/29 09:57:18;;;;;;;5.75;2.00;;;22.30;99.90;;;;;;5069927;28;20135;-85
2023/07/29 09:59:53;;;;;;;4.88;1.90;;;22.80;99.90;;;;;;5068938;28;20048;-84
2023/07/29 10:02:20;;;;;;;3.05;1.60;;;22.80;99.90;;;;;;5078498;28;20547;-85
2023/07/29 10:04:46;;;;;;;3.08;1.60;;;23.20;99.90;;;;;;5077284;28;20048;-85
2023/07/29 10:07:12;;;;;;;4.65;1.70;;;23.00;99.90;;;;;;5061153;28;20046;-85
2023/07/29 10:09:39;;;;;;;3.55;1.58;;;23.10;99.90;;;;;;5082652;28;20120;-85
2023/07/29 10:12:06;;;;;;;2.70;1.70;;;23.50;99.90;;;;;;5056201;28;20040;-86
2023/07/29 10:14:32;;;;;;;2.35;1.67;;;23.00;99.90;;;;;;5077908;28;20076;-82
2023/07/29 10:16:59;;;;;;;3.25;1.85;;;22.90;99.90;;;;;;5075061;28;20082;-86
2023/07/29 10:19:26;;;;;;;1.77;1.52;;;22.70;99.90;;;;;;5089356;28;20055;-85
2023/07/29 10:21:53;;;;;;;2.88;1.67;;;23.10;99.90;;;;;;5060688;28;20040;-83
2023/07/29 10:24:29;;;;;;;4.13;1.70;;;23.00;99.90;;;;;;5071811;28;20039;-85
2023/07/29 10:26:58;;;;;;;3.13;1.80;;;23.20;99.90;;;;;;5072590;28;20045;-85
2023/07/29 10:29:24;;;;;;;5.25;1.70;;;23.20;99.90;;;;;;5063006;28;20068;-84
2023/07/29 10:31:55;;;;;;;2.88;1.63;;;23.30;99.90;;;;;;5081152;28;20048;-84
2023/07/29 10:34:22;;;;;;;4.15;1.95;;;23.50;99.90;;;;;;5063237;28;20032;-85
2023/07/29 10:36:48;;;;;;;3.28;1.88;;;23.40;99.90;;;;;;5087018;28;20451;-84
2023/07/29 10:39:14;;;;;;;3.53;1.92;;;23.40;99.90;;;;;;5085917;28;20403;-83
2023/07/29 10:42:00;;;;;;;2.63;1.70;;;23.40;99.90;;;;;;5068493;28;20056;-84
2023/07/29 10:44:42;;;;;;;2.88;1.48;;;23.40;99.90;;;;;;5075579;28;20151;-84
2023/07/29 10:47:23;;;;;;;5.50;1.80;;;23.60;99.90;;;;;;5079027;28;20056;-83
2023/07/29 10:49:59;;;;;;;2.40;1.90;;;23.50;99.90;;;;;;5078835;28;20791;-83
2023/07/29 10:52:29;;;;;;;2.00;1.63;;;23.40;99.90;;;;;;5065027;28;20036;-83
2023/07/29 10:54:55;;;;;;;2.53;2.00;;;23.70;99.90;;;;;;5078772;28;20070;-83
2023/07/29 10:57:32;;;;;;;2.08;1.80;;;23.60;99.90;;;;;;5068426;28;20044;-84
2023/07/29 10:59:58;;;;;;;2.50;1.70;;;23.40;99.90;;;;;;5067485;28;20164;-84
2023/07/29 11:02:30;;;;;;;3.10;1.92;;;23.60;99.90;;;;;;5068041;28;20309;-84
2023/07/29 11:04:56;;;;;;;2.40;2.20;;;23.20;99.90;;;;;;5068541;28;20151;-85
2023/07/29 11:07:26;;;;;;;3.97;2.50;;;22.70;99.90;;;;;;5067579;28;20147;-84
2023/07/29 11:09:57;;;;;;;4.97;2.85;;;22.70;99.90;;;;;;5069051;28;20091;-85
2023/07/29 11:12:45;;;;;;;2.92;2.30;;;22.40;99.90;;;;;;5084705;28;20051;-84
2023/07/29 11:15:13;;;;;;;3.25;2.05;;;22.10;99.90;;;;;;5060066;28;20154;-87
2023/07/29 11:17:54;;;;;;;3.08;2.13;;;21.70;99.90;;;;;;5052414;28;20086;-84
2023/07/29 11:20:25;;;;;;;4.53;2.20;;;21.70;99.90;;;;;;5073968;28;20048;-85
2023/07/29 11:22:52;;;;;;;3.15;2.45;;;21.90;99.90;;;;;;5067840;28;20036;-84
2023/07/29 11:25:19;;;;;;;3.83;2.30;;;21.80;99.90;;;;;;5084235;28;20051;-84
2023/07/29 11:27:45;;;;;;;4.45;2.60;;;21.90;99.90;;;;;;5088384;28;20048;-83
2023/07/29 11:30:13;;;;;;;4.10;2.88;;;22.20;99.90;;;;;;5083476;28;20041;-84
2023/07/29 11:32:40;;;;;;;3.08;2.20;;;22.80;99.90;;;;;;5086838;28;20101;-83
2023/07/29 11:35:09;;;;;;;2.33;1.55;;;22.40;99.90;;;;;;5088895;28;20063;-83
2023/07/29 11:37:36;;;;;;;2.60;1.88;;;22.50;99.90;;;;;;5083145;28;20583;-84
2023/07/29 11:40:02;;;;;;;2.97;2.00;;;22.40;99.90;;;;;;5075931;28;20691;-81
2023/07/29 11:42:28;;;;;;;3.92;2.08;;;22.10;99.90;;;;;;5066453;28;20182;-81
2023/07/29 11:44:58;;;;;;;3.88;2.05;;;22.00;99.90;;;;;;5050415;28;20056;-81
2023/07/29 11:47:23;;;;;;;5.07;2.10;;;21.80;99.90;;;;;;5050530;28;20051;-81
2023/07/29 11:49:51;;;;;;;4.25;1.95;;;21.90;99.90;;;;;;5066613;28;20051;-81
2023/07/29 11:52:19;;;;;;;3.60;1.90;;;21.80;99.90;;;;;;5069599;28;20487;-82
2023/07/29 11:54:46;;;;;;;3.83;1.95;;;21.90;99.90;;;;;;5066526;28;20406;-81
2023/07/29 11:57:13;;;;;;;4.97;2.45;;;22.00;99.90;;;;;;5067108;28;20131;-82
2023/07/29 11:59:39;;;;;;;3.40;2.17;;;22.00;99.90;;;;;;5065947;28;20051;-80
2023/07/29 12:02:26;;;;;;;3.75;2.20;;;22.10;99.90;;;;;;5067684;28;20056;-81
2023/07/29 12:04:53;;;;;;;3.60;1.92;;;22.20;99.90;;;;;;5065691;28;20843;-81
2023/07/29 12:07:19;;;;;;;4.35;2.00;;;22.50;99.90;;;;;;5071714;28;20055;-80
2023/07/29 12:09:45;;;;;;;7.15;2.33;;;22.70;99.90;;;;;;5087580;28;20051;-80
2023/07/29 12:12:12;;;;;;;2.90;1.90;;;22.90;99.90;;;;;;5074972;28;20049;-81
2023/07/29 12:14:37;;;;;;;3.35;2.00;;;23.00;99.90;;;;;;5067115;28;20041;-79
2023/07/29 12:17:05;;;;;;;3.00;1.98;;;23.10;99.90;;;;;;5081478;28;20059;-80
2023/07/29 12:19:38;;;;;;;4.00;2.22;;;23.20;99.90;;;;;;5086598;28;20039;-81
2023/07/29 12:22:05;;;;;;;8.30;2.10;;;23.20;99.90;;;;;;5069675;28;20048;-81
2023/07/29 12:24:32;;;;;;;4.10;2.00;;;23.10;99.90;;;;;;5085638;28;20048;-81
2023/07/29 12:26:58;;;;;;;3.28;2.10;;;22.90;99.90;;;;;;5069865;28;20036;-81
2023/07/29 12:29:23;;;;;;;4.40;1.88;;;22.80;99.90;;;;;;5086327;28;20079;-80
2023/07/29 12:31:59;;;;;;;3.25;1.88;;;23.10;99.90;;;;;;5082032;28;20087;-80
2023/07/29 12:34:27;;;;;;;3.53;1.90;;;22.90;99.90;;;;;;5078776;28;20052;-82
2023/07/29 12:36:54;;;;;;;3.58;1.88;;;23.10;99.90;;;;;;5087814;28;20159;-81
2023/07/29 12:39:25;;;;;;;2.80;2.10;;;22.90;99.90;;;;;;5085583;28;20453;-81
2023/07/29 12:41:53;;;;;;;3.00;1.85;;;23.00;99.90;;;;;;5055692;28;20581;-81
2023/07/29 12:44:19;;;;;;;4.93;1.98;;;23.20;99.90;;;;;;5066132;28;20112;-80
2023/07/29 12:46:44;;;;;;;2.83;1.65;;;23.40;99.90;;;;;;5066354;28;20412;-79